createdAt,value
2023-03-16T00:02:04.980Z,1.97
2023-03-16T00:04:37.551Z,2.05
2023-03-16T00:07:07.291Z,2.12
2023-03-16T00:09:35.865Z,1.99
2023-03-16T00:12:04.299Z,1.97
2023-03-16T00:14:32.545Z,2.00
2023-03-16T00:17:00.739Z,2.01
2023-03-16T00:19:28.775Z,1.96
2023-03-16T00:21:58.654Z,2.00
2023-03-16T00:24:27.052Z,1.98
2023-03-16T00:26:55.447Z,2.04
2023-03-16T00:29:23.892Z,1.99
2023-03-16T00:31:52.345Z,1.88
2023-03-16T00:34:20.529Z,1.87
2023-03-16T00:36:48.655Z,1.92
2023-03-16T00:39:18.253Z,1.94
2023-03-16T00:41:46.350Z,1.85
2023-03-16T00:44:14.436Z,1.84
2023-03-16T00:46:42.972Z,1.92
2023-03-16T00:49:10.992Z,1.89
2023-03-16T00:51:39.716Z,1.84
2023-03-16T00:54:07.744Z,1.84
2023-03-16T00:56:37.220Z,1.99
2023-03-16T00:59:06.598Z,1.99
2023-03-16T01:01:35.065Z,1.97
2023-03-16T01:04:03.434Z,2.00
2023-03-16T01:06:33.160Z,1.88
2023-03-16T01:09:01.403Z,1.93
2023-03-16T01:11:29.497Z,1.93
2023-03-16T01:13:58.975Z,1.87
2023-03-16T01:16:27.106Z,1.81
2023-03-16T01:18:55.325Z,1.88
2023-03-16T01:21:23.565Z,1.96
2023-03-16T01:23:53.914Z,1.86
2023-03-16T01:26:23.417Z,1.84
2023-03-16T01:28:51.416Z,1.88
2023-03-16T01:31:23.465Z,1.93
2023-03-16T01:33:52.317Z,1.94
2023-03-16T01:36:20.467Z,1.92
2023-03-16T01:38:49.782Z,2.00
2023-03-16T01:41:18.091Z,1.95
2023-03-16T01:43:46.483Z,2.00
2023-03-16T01:46:21.598Z,2.06
2023-03-16T01:49:01.528Z,2.04
2023-03-16T01:51:31.531Z,2.08
2023-03-16T01:54:00.390Z,2.09
2023-03-16T01:56:30.806Z,2.09
2023-03-16T01:58:59.537Z,2.05
2023-03-16T02:01:29.532Z,2.17
2023-03-16T02:04:00.307Z,2.08
2023-03-16T02:06:28.803Z,2.10
2023-03-16T02:08:57.299Z,2.18
2023-03-16T02:11:25.694Z,2.14
2023-03-16T02:13:53.856Z,2.17
2023-03-16T02:16:22.726Z,2.25
2023-03-16T02:18:52.267Z,2.18
2023-03-16T02:21:22.318Z,2.13
2023-03-16T02:23:50.851Z,2.29
2023-03-16T02:26:24.074Z,2.37
2023-03-16T02:28:55.294Z,2.10
2023-03-16T02:31:24.924Z,2.17
2023-03-16T02:33:52.978Z,2.19
2023-03-16T02:36:21.231Z,2.22
2023-03-16T02:38:49.348Z,2.08
2023-03-16T02:41:18.559Z,2.19
2023-03-16T02:43:48.457Z,2.20
2023-03-16T02:46:16.975Z,2.27
2023-03-16T02:48:48.135Z,2.27
2023-03-16T02:51:16.849Z,2.25
2023-03-16T02:53:44.858Z,2.23
2023-03-16T02:56:13.100Z,2.27
2023-03-16T02:58:41.472Z,2.21
2023-03-16T03:01:09.528Z,2.23
2023-03-16T03:03:37.690Z,2.35
2023-03-16T03:06:07.824Z,2.27
2023-03-16T03:08:35.913Z,2.33
2023-03-16T03:11:04.021Z,2.27
2023-03-16T03:13:33.602Z,2.32
2023-03-16T03:16:01.872Z,2.28
2023-03-16T03:18:29.923Z,2.38
2023-03-16T03:20:58.005Z,2.25
2023-03-16T03:23:27.433Z,2.34
2023-03-16T03:25:58.499Z,2.28
2023-03-16T03:28:26.812Z,2.40
2023-03-16T03:30:54.862Z,2.43
2023-03-16T03:33:23.032Z,2.41
2023-03-16T03:35:55.390Z,2.32
2023-03-16T03:38:23.463Z,2.39
2023-03-16T03:40:53.553Z,2.35
2023-03-16T03:43:21.876Z,2.37
2023-03-16T03:45:50.055Z,2.36
2023-03-16T03:48:18.140Z,2.32
2023-03-16T03:50:46.525Z,2.41
2023-03-16T03:53:14.609Z,2.45
2023-03-16T03:55:42.630Z,2.42
2023-03-16T03:58:12.684Z,2.44
2023-03-16T04:00:40.799Z,2.41
2023-03-16T04:03:09.287Z,2.45
2023-03-16T04:05:37.521Z,2.46
2023-03-16T04:08:07.377Z,2.49
2023-03-16T04:10:35.386Z,2.42
2023-03-16T04:13:03.446Z,2.43
2023-03-16T04:15:33.184Z,2.47
2023-03-16T04:18:02.050Z,2.52
2023-03-16T04:20:30.117Z,2.48
2023-03-16T04:22:59.422Z,2.54
2023-03-16T04:25:27.734Z,2.52
2023-03-16T04:27:56.891Z,2.47
2023-03-16T04:30:25.078Z,2.39
2023-03-16T04:32:54.808Z,2.47
2023-03-16T04:35:23.299Z,2.48
2023-03-16T04:37:51.656Z,2.47
2023-03-16T04:40:21.176Z,2.44
2023-03-16T04:42:49.363Z,2.33
2023-03-16T04:45:17.812Z,2.45
2023-03-16T04:47:46.358Z,2.40
2023-03-16T04:50:15.924Z,2.42
2023-03-16T04:52:43.906Z,2.46
2023-03-16T04:55:12.098Z,2.32
2023-03-16T04:57:40.472Z,2.36
2023-03-16T05:00:11.769Z,2.43
2023-03-16T05:02:40.110Z,2.47
2023-03-16T05:05:08.635Z,2.37
2023-03-16T05:07:38.060Z,2.33
2023-03-16T05:10:06.719Z,2.40
2023-03-16T05:12:35.319Z,2.34
2023-03-16T05:15:03.406Z,2.26
2023-03-16T05:17:31.414Z,2.30
2023-03-16T05:20:02.729Z,2.28
2023-03-16T05:22:30.710Z,2.24
2023-03-16T05:25:03.436Z,2.24
2023-03-16T05:27:31.532Z,2.35
2023-03-16T05:30:01.359Z,2.32
2023-03-16T05:32:29.426Z,2.37
2023-03-16T05:34:58.761Z,2.36
2023-03-16T05:37:26.765Z,2.37
2023-03-16T05:39:55.120Z,2.37
2023-03-16T05:42:24.570Z,2.46
2023-03-16T05:44:52.768Z,2.35
2023-03-16T05:47:21.153Z,2.43
2023-03-16T05:49:49.322Z,2.44
2023-03-16T05:52:17.352Z,2.40
2023-03-16T05:54:45.397Z,2.44
2023-03-16T05:57:13.829Z,2.43
2023-03-16T05:59:44.422Z,2.49
2023-03-16T06:02:12.895Z,2.53
2023-03-16T06:04:42.021Z,2.54
2023-03-16T06:07:10.062Z,2.58
2023-03-16T06:09:38.617Z,2.59
2023-03-16T06:12:06.982Z,2.70
2023-03-16T06:14:35.160Z,2.71
2023-03-16T06:17:04.723Z,2.71
2023-03-16T06:19:33.000Z,2.78
2023-03-16T06:22:01.452Z,2.69
2023-03-16T06:24:29.443Z,2.74
2023-03-16T06:26:57.719Z,2.73
2023-03-16T06:29:26.777Z,2.73
2023-03-16T06:31:54.896Z,2.76
2023-03-16T06:34:24.866Z,2.84
2023-03-16T06:36:53.550Z,2.92
2023-03-16T06:39:23.772Z,2.92
2023-03-16T06:41:52.748Z,3.08
2023-03-16T06:44:21.305Z,2.99
2023-03-16T06:46:51.798Z,3.13
2023-03-16T06:49:24.178Z,3.10
2023-03-16T06:51:52.774Z,3.19
2023-03-16T06:54:20.883Z,3.21
2023-03-16T06:56:49.080Z,3.11
2023-03-16T06:59:17.372Z,3.22
2023-03-16T07:01:45.566Z,3.30
2023-03-16T07:04:17.343Z,3.45
2023-03-16T07:06:47.185Z,3.41
2023-03-16T07:09:15.274Z,3.47
2023-03-16T07:11:43.401Z,3.55
2023-03-16T07:14:12.005Z,3.51
2023-03-16T07:16:40.115Z,3.51
2023-03-16T07:19:08.356Z,3.65
2023-03-16T07:21:40.133Z,3.71
2023-03-16T07:24:11.401Z,3.57
2023-03-16T07:26:39.443Z,3.67
2023-03-16T07:29:07.672Z,3.55
2023-03-16T07:31:35.800Z,3.83
2023-03-16T07:34:05.994Z,3.92
2023-03-16T07:36:34.232Z,4.00
2023-03-16T07:39:02.640Z,3.89
2023-03-16T07:41:32.802Z,4.16
2023-03-16T07:44:00.898Z,4.18
2023-03-16T07:46:29.139Z,4.08
2023-03-16T07:48:57.290Z,4.18
2023-03-16T07:51:25.569Z,4.41
2023-03-16T07:53:54.093Z,4.37
2023-03-16T07:56:22.585Z,4.41
2023-03-16T07:58:57.874Z,4.50
2023-03-16T08:01:31.675Z,4.57
2023-03-16T08:04:00.269Z,4.77
2023-03-16T08:06:28.780Z,4.87
2023-03-16T08:08:56.848Z,4.73
2023-03-16T08:11:24.842Z,4.88
2023-03-16T08:13:56.832Z,4.87
2023-03-16T08:16:25.401Z,4.67
2023-03-16T08:18:57.388Z,4.82
2023-03-16T08:21:25.518Z,5.01
2023-03-16T08:23:53.691Z,4.91
2023-03-16T08:26:22.216Z,4.70
2023-03-16T08:28:54.461Z,4.92
2023-03-16T08:31:23.493Z,5.05
2023-03-16T08:33:52.034Z,4.87
2023-03-16T08:36:21.127Z,4.85
2023-03-16T08:39:06.146Z,4.88
2023-03-16T08:41:35.252Z,4.94
2023-03-16T08:44:04.829Z,5.07
2023-03-16T08:46:34.146Z,4.88
2023-03-16T08:49:02.912Z,5.04
2023-03-16T08:51:31.188Z,5.22
2023-03-16T08:53:59.644Z,5.33
2023-03-16T08:56:29.003Z,5.21
2023-03-16T08:58:57.601Z,5.28
2023-03-16T09:01:48.992Z,5.46
2023-03-16T09:04:17.311Z,5.50
2023-03-16T09:06:55.829Z,5.42
2023-03-16T09:09:31.223Z,5.36
2023-03-16T09:12:00.894Z,5.20
2023-03-16T09:14:29.177Z,5.36
2023-03-16T09:16:58.699Z,5.23
2023-03-16T09:19:29.144Z,5.24
2023-03-16T09:21:59.225Z,5.26
2023-03-16T09:24:28.108Z,5.28
2023-03-16T09:26:56.399Z,5.28
2023-03-16T09:29:25.320Z,5.35
2023-03-16T09:31:53.397Z,5.45
2023-03-16T09:36:56.748Z,5.55
2023-03-16T09:39:24.901Z,5.61
2023-03-16T09:41:55.223Z,5.85
2023-03-16T09:44:37.134Z,6.00
2023-03-16T09:47:06.243Z,5.80
2023-03-16T09:49:38.359Z,5.96
2023-03-16T09:52:10.123Z,5.98
2023-03-16T09:54:40.914Z,6.10
2023-03-16T09:57:15.222Z,6.15
2023-03-16T09:59:45.731Z,6.17
2023-03-16T10:02:45.006Z,6.12
2023-03-16T10:05:16.095Z,6.48
2023-03-16T10:07:49.122Z,6.43
2023-03-16T10:10:23.868Z,6.52
2023-03-16T10:12:52.924Z,6.75
2023-03-16T10:15:22.692Z,6.73
2023-03-16T10:17:52.965Z,6.62
2023-03-16T10:20:23.210Z,6.84
2023-03-16T10:22:53.155Z,7.01
2023-03-16T10:25:22.097Z,7.34
2023-03-16T10:27:50.055Z,7.23
2023-03-16T10:30:24.651Z,7.50
2023-03-16T10:32:53.141Z,7.47
2023-03-16T10:35:32.085Z,7.67
2023-03-16T10:38:01.037Z,7.68
2023-03-16T10:40:33.951Z,7.56
2023-03-16T10:43:09.531Z,7.70
2023-03-16T10:45:39.258Z,7.72
2023-03-16T10:48:08.874Z,7.96
2023-03-16T10:50:41.797Z,8.02
2023-03-16T10:53:18.267Z,7.83
2023-03-16T10:55:46.355Z,7.92
2023-03-16T10:58:25.292Z,7.93
2023-03-16T11:00:53.787Z,8.00
2023-03-16T11:03:24.013Z,7.82
2023-03-16T11:06:00.724Z,7.92
2023-03-16T11:08:29.181Z,7.77
2023-03-16T11:10:59.157Z,7.70
2023-03-16T11:13:33.018Z,7.85
2023-03-16T11:16:03.879Z,7.87
2023-03-16T11:18:33.192Z,7.87
2023-03-16T11:21:08.262Z,7.91
2023-03-16T11:23:38.804Z,7.83
2023-03-16T11:26:11.285Z,8.03
2023-03-16T11:28:41.853Z,8.16
2023-03-16T11:31:18.466Z,8.26
2023-03-16T11:33:47.298Z,8.12
2023-03-16T11:36:28.126Z,8.26
2023-03-16T11:39:02.683Z,8.29
2023-03-16T11:41:38.152Z,8.59
2023-03-16T11:44:07.831Z,8.92
2023-03-16T11:46:38.089Z,8.92
2023-03-16T11:49:22.955Z,9.10
2023-03-16T11:51:55.821Z,9.08
2023-03-16T11:54:38.617Z,9.00
2023-03-16T11:57:08.920Z,9.01
2023-03-16T12:00:01.571Z,9.10
2023-03-16T12:02:40.855Z,9.14
2023-03-16T12:05:30.698Z,9.06
2023-03-16T12:08:05.470Z,8.95
2023-03-16T12:10:34.360Z,9.07
2023-03-16T12:13:08.034Z,9.21
2023-03-16T12:15:39.169Z,9.33
2023-03-16T12:18:15.373Z,9.39
2023-03-16T12:20:49.997Z,9.52
2023-03-16T12:23:23.475Z,9.38
2023-03-16T12:25:51.779Z,9.34
2023-03-16T12:28:24.958Z,9.42
2023-03-16T12:31:00.185Z,9.60
2023-03-16T12:33:41.430Z,9.60
2023-03-16T12:36:23.935Z,9.63
2023-03-16T12:38:55.075Z,9.91
2023-03-16T12:41:28.391Z,9.83
2023-03-16T12:44:07.578Z,9.96
2023-03-16T12:46:41.320Z,9.67
2023-03-16T12:49:10.069Z,9.75
2023-03-16T12:51:38.820Z,9.92
2023-03-16T12:54:24.631Z,9.82
2023-03-16T12:56:53.943Z,9.71
2023-03-16T12:59:22.894Z,9.76
2023-03-16T13:01:55.121Z,9.69
2023-03-16T13:04:25.005Z,10.07
2023-03-16T13:07:03.388Z,9.82
2023-03-16T13:09:32.956Z,9.80
2023-03-16T13:12:05.220Z,9.83
2023-03-16T13:14:40.574Z,9.75
2023-03-16T13:17:27.322Z,9.73
2023-03-16T13:20:13.748Z,9.73
2023-03-16T13:22:47.422Z,9.76
2023-03-16T13:25:22.916Z,9.80
2023-03-16T13:27:53.067Z,9.83
2023-03-16T13:30:22.728Z,9.82
2023-03-16T13:32:54.403Z,9.71
2023-03-16T13:35:22.823Z,10.00
2023-03-16T13:37:51.247Z,10.13
2023-03-16T13:40:23.733Z,10.13
2023-03-16T13:42:53.268Z,10.19
2023-03-16T13:45:22.647Z,10.14
2023-03-16T13:47:51.736Z,9.97
2023-03-16T13:50:20.848Z,10.24
2023-03-16T13:52:55.288Z,10.36
2023-03-16T13:55:30.933Z,10.35
2023-03-16T13:57:59.674Z,10.38
2023-03-16T14:00:28.797Z,10.38
2023-03-16T14:02:58.985Z,10.53
2023-03-16T14:05:28.748Z,10.52
2023-03-16T14:07:59.820Z,10.54
2023-03-16T14:10:30.465Z,10.29
2023-03-16T14:12:59.698Z,10.39
2023-03-16T14:15:28.954Z,10.42
2023-03-16T14:18:03.557Z,10.34
2023-03-16T14:20:34.970Z,10.18
2023-03-16T14:23:19.138Z,10.45
2023-03-16T14:25:51.366Z,10.49
2023-03-16T14:28:21.108Z,10.55
2023-03-16T14:30:52.525Z,10.69
2023-03-16T14:33:30.043Z,10.48
2023-03-16T14:35:59.224Z,10.63
2023-03-16T14:38:32.104Z,10.45
2023-03-16T14:41:04.567Z,10.29
2023-03-16T14:43:34.224Z,10.54
2023-03-16T14:46:05.579Z,10.62
2023-03-16T14:48:36.799Z,10.84
2023-03-16T14:51:07.630Z,10.54
2023-03-16T14:53:35.699Z,10.52
2023-03-16T14:56:06.871Z,10.68
2023-03-16T14:58:36.749Z,10.66
2023-03-16T15:01:07.910Z,10.71
2023-03-16T15:03:39.496Z,10.72
2023-03-16T15:06:07.727Z,10.70
2023-03-16T15:08:42.649Z,10.71
2023-03-16T15:11:12.377Z,10.92
2023-03-16T15:14:04.517Z,10.67
2023-03-16T15:16:33.016Z,10.89
2023-03-16T15:19:01.699Z,10.90
2023-03-16T15:21:31.112Z,10.91
2023-03-16T15:23:59.732Z,10.81
2023-03-16T15:26:34.095Z,10.87
2023-03-16T15:29:02.439Z,10.61
2023-03-16T15:31:30.572Z,10.40
2023-03-16T15:34:01.168Z,10.45
2023-03-16T15:36:29.428Z,10.37
2023-03-16T15:38:58.105Z,10.47
2023-03-16T15:41:32.455Z,10.60
2023-03-16T15:44:10.892Z,10.58
2023-03-16T15:46:39.016Z,10.66
2023-03-16T15:49:08.671Z,10.28
2023-03-16T15:51:36.945Z,10.59
2023-03-16T15:54:05.967Z,10.24
2023-03-16T15:56:47.166Z,10.30
2023-03-16T15:59:18.326Z,10.23
2023-03-16T16:01:48.005Z,10.02
2023-03-16T16:04:17.714Z,9.98
2023-03-16T16:06:45.945Z,9.83
2023-03-16T16:09:14.109Z,9.79
2023-03-16T16:11:42.418Z,9.89
2023-03-16T16:14:11.062Z,9.81
2023-03-16T16:16:40.947Z,9.65
2023-03-16T16:19:11.187Z,9.76
2023-03-16T16:21:39.218Z,9.52
2023-03-16T16:24:08.314Z,9.82
2023-03-16T16:26:48.985Z,9.61
2023-03-16T16:29:22.193Z,9.67
2023-03-16T16:31:52.445Z,9.41
2023-03-16T16:34:21.860Z,9.47
2023-03-16T16:36:50.076Z,9.39
2023-03-16T16:39:18.544Z,9.31
2023-03-16T16:41:46.899Z,9.30
2023-03-16T16:44:18.009Z,9.20
2023-03-16T16:46:45.978Z,9.16
2023-03-16T16:49:17.339Z,9.26
2023-03-16T16:51:45.566Z,9.24
2023-03-16T16:54:17.210Z,9.22
2023-03-16T16:56:45.354Z,9.13
2023-03-16T16:59:17.012Z,9.10
2023-03-16T17:01:45.355Z,9.05
2023-03-16T17:04:14.963Z,9.10
2023-03-16T17:06:45.788Z,9.07
2023-03-16T17:09:14.330Z,8.93
2023-03-16T17:11:42.545Z,8.99
2023-03-16T17:14:10.489Z,8.82
2023-03-16T17:16:39.184Z,8.92
2023-03-16T17:19:08.778Z,8.83
2023-03-16T17:21:36.759Z,8.80
2023-03-16T17:24:07.870Z,8.76
2023-03-16T17:26:38.643Z,8.64
2023-03-16T17:29:09.228Z,8.60
2023-03-16T17:31:38.367Z,8.55
2023-03-16T17:34:16.637Z,8.58
2023-03-16T17:36:44.768Z,8.46
2023-03-16T17:39:17.537Z,8.55
2023-03-16T17:41:47.647Z,8.54
2023-03-16T17:44:20.026Z,8.45
2023-03-16T17:46:48.525Z,8.43
2023-03-16T17:49:17.818Z,8.32
2023-03-16T17:51:45.806Z,8.36
2023-03-16T17:54:15.278Z,8.25
2023-03-16T17:56:51.735Z,8.23
2023-03-16T17:59:20.952Z,8.22
2023-03-16T18:01:49.177Z,8.31
2023-03-16T18:04:17.600Z,8.15
2023-03-16T18:06:47.160Z,8.13
2023-03-16T18:09:17.740Z,8.24
2023-03-16T18:11:47.770Z,8.31
2023-03-16T18:14:23.763Z,8.11
2023-03-16T18:16:52.334Z,8.10
2023-03-16T18:19:23.784Z,8.14
2023-03-16T18:21:53.833Z,8.05
2023-03-16T18:24:27.042Z,8.08
2023-03-16T18:26:57.133Z,8.01
2023-03-16T18:29:25.136Z,7.95
2023-03-16T18:31:53.959Z,8.01
2023-03-16T18:34:23.904Z,7.93
2023-03-16T18:36:52.719Z,7.96
2023-03-16T18:39:21.663Z,7.87
2023-03-16T18:41:51.304Z,7.82
2023-03-16T18:44:21.308Z,7.87
2023-03-16T18:46:49.563Z,7.84
2023-03-16T18:49:20.287Z,7.74
2023-03-16T18:51:50.897Z,7.82
2023-03-16T18:54:21.762Z,7.78
2023-03-16T18:56:51.251Z,7.79
2023-03-16T18:59:21.677Z,7.79
2023-03-16T19:01:49.730Z,7.79
2023-03-16T19:04:21.579Z,7.76
2023-03-16T19:06:49.788Z,7.67
2023-03-16T19:09:21.078Z,7.66
2023-03-16T19:11:51.217Z,7.74
2023-03-16T19:14:20.408Z,7.75
2023-03-16T19:16:48.505Z,7.65
2023-03-16T19:19:17.128Z,7.60
2023-03-16T19:21:45.179Z,7.50
2023-03-16T19:24:19.956Z,7.59
2023-03-16T19:26:48.135Z,7.49
2023-03-16T19:29:17.749Z,7.43
2023-03-16T19:31:46.106Z,7.45
2023-03-16T19:34:17.711Z,7.37
2023-03-16T19:36:46.234Z,7.38
2023-03-16T19:39:15.414Z,7.40
2023-03-16T19:41:43.729Z,7.43
2023-03-16T19:44:15.915Z,7.41
2023-03-16T19:46:49.038Z,7.35
2023-03-16T19:49:17.516Z,7.36
2023-03-16T19:51:45.460Z,7.34
2023-03-16T19:54:15.746Z,7.31
2023-03-16T19:56:44.071Z,7.34
2023-03-16T19:59:12.126Z,7.26
2023-03-16T20:01:40.210Z,7.21
2023-03-16T20:04:15.616Z,7.25
2023-03-16T20:06:45.169Z,7.18
2023-03-16T20:09:13.690Z,7.17
2023-03-16T20:11:41.747Z,7.24
2023-03-16T20:14:17.492Z,7.24
2023-03-16T20:16:47.294Z,7.15
2023-03-16T20:19:16.770Z,7.23
2023-03-16T20:21:45.349Z,7.21
2023-03-16T20:24:16.447Z,7.16
2023-03-16T20:26:44.528Z,7.15
2023-03-16T20:29:16.957Z,7.07
2023-03-16T20:31:45.554Z,7.07
2023-03-16T20:34:16.434Z,7.10
2023-03-16T20:36:44.470Z,7.06
2023-03-16T20:39:12.587Z,7.03
2023-03-16T20:41:41.342Z,7.12
2023-03-16T20:44:11.073Z,7.06
2023-03-16T20:46:41.263Z,6.99
2023-03-16T20:49:12.540Z,7.05
2023-03-16T20:51:41.905Z,7.03
2023-03-16T20:54:09.931Z,7.00
2023-03-16T20:56:38.606Z,7.00
2023-03-16T20:59:08.862Z,6.95
2023-03-16T21:01:51.982Z,6.97
2023-03-16T21:07:22.112Z,6.87
2023-03-16T21:09:50.477Z,6.89
2023-03-16T21:12:22.673Z,6.88
2023-03-16T21:14:50.681Z,6.84
2023-03-16T21:17:26.338Z,6.90
2023-03-16T21:19:54.607Z,6.94
2023-03-16T21:22:25.997Z,6.85
2023-03-16T21:24:54.041Z,6.85
2023-03-16T21:27:24.508Z,6.87
2023-03-16T21:29:53.362Z,6.85
2023-03-16T21:32:22.310Z,6.87
2023-03-16T21:34:50.423Z,6.87
2023-03-16T21:37:19.838Z,6.84
2023-03-16T21:39:50.366Z,6.91
2023-03-16T21:42:18.952Z,6.89
2023-03-16T21:44:47.229Z,6.94
2023-03-16T21:47:23.330Z,6.87
2023-03-16T21:49:51.694Z,6.92
2023-03-16T21:52:23.690Z,6.87
2023-03-16T21:54:53.505Z,6.85
2023-03-16T21:57:21.599Z,6.94
2023-03-16T21:59:50.322Z,6.93
2023-03-16T22:02:28.610Z,6.92
2023-03-16T22:04:58.300Z,6.89
2023-03-16T22:07:26.618Z,6.90
2023-03-16T22:09:56.047Z,6.99
2023-03-16T22:12:24.039Z,6.96
2023-03-16T22:14:52.383Z,6.87
2023-03-16T22:17:21.492Z,6.88
2023-03-16T22:19:49.600Z,6.90
2023-03-16T22:22:17.877Z,6.92
2023-03-16T22:24:46.136Z,6.96
2023-03-16T22:27:18.536Z,6.98
2023-03-16T22:29:46.809Z,6.92
2023-03-16T22:32:17.102Z,6.88
2023-03-16T22:34:45.880Z,6.95
2023-03-16T22:37:14.983Z,6.96
2023-03-16T22:39:43.021Z,6.96
2023-03-16T22:42:24.480Z,7.07
2023-03-16T22:44:52.824Z,7.01
2023-03-16T22:47:21.964Z,7.07
2023-03-16T22:49:49.983Z,7.03
2023-03-16T22:52:18.365Z,7.05
2023-03-16T22:54:46.423Z,6.94
2023-03-16T22:57:14.534Z,7.02
2023-03-16T22:59:43.934Z,6.97
2023-03-16T23:02:12.081Z,7.04
2023-03-16T23:04:40.453Z,7.07
2023-03-16T23:07:11.303Z,7.07
2023-03-16T23:09:39.446Z,7.12
2023-03-16T23:12:10.687Z,7.12
2023-03-16T23:14:38.793Z,7.12
2023-03-16T23:17:14.258Z,7.21
2023-03-16T23:19:42.577Z,7.20
2023-03-16T23:22:12.253Z,7.24
2023-03-16T23:24:40.218Z,7.27
2023-03-16T23:27:08.459Z,7.25
2023-03-16T23:29:36.477Z,7.23
2023-03-16T23:32:05.070Z,7.31
2023-03-16T23:34:34.682Z,7.31
2023-03-16T23:37:02.737Z,7.34
2023-03-16T23:39:42.420Z,7.36
2023-03-16T23:42:11.039Z,7.35
2023-03-16T23:44:39.305Z,7.35
2023-03-16T23:47:08.676Z,7.37
2023-03-16T23:49:38.368Z,7.35
2023-03-16T23:52:07.432Z,7.38
2023-03-16T23:54:35.360Z,7.42
2023-03-16T23:57:03.424Z,7.39
2023-03-16T23:59:31.494Z,7.40
